Time;durP1;ratioP1;P1;durP2;ratioP2;P2;SDS_P1;SDS_P2;PMS_P1;PMS_P2;Temp;Humidity;BMP_temperature;BMP_pressure;BME280_temperature;BME280_humidity;BME280_pressure;Samples;Min_cycle;Max_cycle;Signal;HPM_P1;HPM_P2
2021/09/06 00:05:50;;;;;;;9.68;3.03;;;24.80;44.60;;;;;;20968515;27;81586;-68
2021/09/06 00:15:52;;;;;;;7.55;3.30;;;24.80;45.00;;;;;;20967418;27;80705;-69
2021/09/06 00:25:53;;;;;;;5.90;3.28;;;24.70;45.40;;;;;;20949080;27;80881;-67
2021/09/06 00:35:57;;;;;;;8.38;2.88;;;24.60;45.80;;;;;;20969390;27;81663;-69
2021/09/06 00:45:59;;;;;;;10.82;3.00;;;24.50;46.10;;;;;;20981688;27;80444;-68
2021/09/06 00:56:02;;;;;;;5.45;2.67;;;24.50;46.90;;;;;;21004344;27;81654;-70
2021/09/06 01:06:05;;;;;;;4.13;2.95;;;24.30;46.70;;;;;;21024295;27;81274;-71
2021/09/06 01:16:08;;;;;;;7.25;2.67;;;24.20;47.00;;;;;;20961318;27;80737;-70
2021/09/06 01:26:12;;;;;;;6.90;2.85;;;24.10;47.40;;;;;;20978515;27;80897;-69
2021/09/06 01:36:18;;;;;;;6.50;2.90;;;24.10;47.50;;;;;;20959800;27;80661;-69
2021/09/06 01:46:20;;;;;;;5.90;3.00;;;24.00;53.50;;;;;;20957848;27;81288;-69
2021/09/06 01:56:24;;;;;;;8.55;3.20;;;23.90;51.00;;;;;;20975982;27;80789;-71
2021/09/06 02:06:27;;;;;;;8.15;3.47;;;23.90;51.10;;;;;;20957516;27;80960;-70
2021/09/06 02:16:32;;;;;;;4.65;3.03;;;24.00;49.70;;;;;;20957380;27;80051;-69
2021/09/06 02:26:37;;;;;;;6.15;2.80;;;24.00;51.40;;;;;;20955549;27;80740;-68
2021/09/06 02:36:41;;;;;;;9.27;2.90;;;24.00;49.90;;;;;;20973276;27;80790;-70
2021/09/06 02:46:47;;;;;;;8.20;3.90;;;24.10;49.50;;;;;;20972613;27;80035;-70
2021/09/06 02:56:52;;;;;;;6.50;3.22;;;24.20;49.30;;;;;;20954336;27;80849;-69
2021/09/06 03:06:58;;;;;;;6.63;3.47;;;24.20;50.00;;;;;;20970170;27;80614;-69
2021/09/06 03:17:19;;;;;;;10.63;4.00;;;24.20;50.30;;;;;;20970706;27;80213;-67
2021/09/06 03:27:41;;;;;;;9.53;3.90;;;24.10;49.90;;;;;;20970780;27;82071;-67
2021/09/06 03:38:02;;;;;;;6.17;3.40;;;24.10;49.70;;;;;;20954414;27;80554;-69
2021/09/06 03:48:23;;;;;;;7.60;3.00;;;23.90;52.10;;;;;;20953153;27;80808;-70
2021/09/06 03:58:32;;;;;;;8.85;3.20;;;23.90;50.00;;;;;;20968029;27;80596;-68
2021/09/06 04:08:39;;;;;;;7.22;3.25;;;23.80;49.70;;;;;;20967334;27;80782;-68
2021/09/06 04:18:48;;;;;;;5.68;3.10;;;23.70;49.70;;;;;;20998245;27;81167;-67
2021/09/06 04:29:02;;;;;;;5.72;2.17;;;23.60;51.00;;;;;;21011992;27;80062;-70
2021/09/06 04:39:10;;;;;;;5.88;2.60;;;23.70;49.70;;;;;;20948056;27;80617;-69
2021/09/06 04:49:26;;;;;;;4.28;2.33;;;23.80;49.70;;;;;;20964416;27;81048;-69
2021/09/06 04:59:35;;;;;;;5.88;2.50;;;23.90;49.60;;;;;;20963495;27;81889;-68
2021/09/06 05:09:43;;;;;;;5.32;2.65;;;24.00;49.70;;;;;;20962742;27;80849;-69
2021/09/06 05:19:48;;;;;;;6.50;2.55;;;23.80;49.10;;;;;;20945040;27;81884;-70
2021/09/06 05:29:53;;;;;;;6.10;2.80;;;23.80;49.30;;;;;;21010945;27;80476;-70
2021/09/06 05:39:58;;;;;;;8.35;3.15;;;23.80;51.00;;;;;;21016138;27;80715;-71
2021/09/06 05:50:00;;;;;;;4.75;2.35;;;23.80;49.90;;;;;;20958024;27;80057;-68
2021/09/06 06:00:04;;;;;;;4.28;2.42;;;23.90;49.60;;;;;;20959317;27;81988;-69
2021/09/06 06:10:07;;;;;;;4.63;2.60;;;23.90;49.10;;;;;;20957071;27;81597;-70
2021/09/06 06:20:13;;;;;;;5.30;2.78;;;24.00;49.10;;;;;;20998764;27;80459;-68
2021/09/06 06:30:16;;;;;;;7.10;3.00;;;24.00;48.70;;;;;;21038614;27;81819;-68
2021/09/06 06:40:18;;;;;;;6.63;2.50;;;24.10;48.80;;;;;;21055411;27;80607;-69
2021/09/06 06:50:22;;;;;;;5.80;2.55;;;24.20;49.20;;;;;;21036230;27;80040;-69
2021/09/06 07:00:25;;;;;;;11.90;2.80;;;24.30;50.30;;;;;;21054891;27;80700;-70
2021/09/06 07:10:29;;;;;;;4.53;2.63;;;24.40;49.90;;;;;;21053436;27;80691;-71
2021/09/06 07:20:31;;;;;;;7.45;3.53;;;24.50;50.00;;;;;;21036749;27;81025;-72
2021/09/06 07:30:34;;;;;;;9.00;3.08;;;24.60;49.70;;;;;;21022523;27;81007;-70
2021/09/06 07:40:37;;;;;;;9.57;3.20;;;24.90;49.40;;;;;;20986965;27;80925;-67
2021/09/06 07:50:41;;;;;;;6.63;3.72;;;25.20;49.40;;;;;;21052517;27;80585;-67
2021/09/06 08:00:46;;;;;;;8.82;4.20;;;25.50;48.90;;;;;;21052594;27;81461;-66
2021/09/06 08:10:49;;;;;;;9.20;3.53;;;25.90;48.50;;;;;;21019317;27;81154;-64
2021/09/06 08:20:53;;;;;;;13.07;3.45;;;26.20;48.00;;;;;;20956319;27;80858;-64
2021/09/06 08:30:55;;;;;;;10.10;3.13;;;26.40;48.20;;;;;;21029243;27;81817;-65
2021/09/06 08:40:58;;;;;;;7.70;3.28;;;26.80;47.00;;;;;;21048780;27;81622;-65
2021/09/06 08:51:00;;;;;;;8.75;3.70;;;27.10;46.40;;;;;;21051141;27;82015;-65
2021/09/06 09:01:03;;;;;;;8.57;3.78;;;27.20;46.10;;;;;;21059469;27;81971;-65
2021/09/06 09:11:07;;;;;;;8.10;4.15;;;27.60;45.90;;;;;;21046639;27;80937;-64
2021/09/06 09:21:12;;;;;;;10.20;4.00;;;28.20;45.50;;;;;;21063437;27;80507;-65
2021/09/06 09:31:17;;;;;;;6.13;3.08;;;28.60;44.50;;;;;;21045485;27;80606;-66
2021/09/06 09:41:20;;;;;;;9.98;3.45;;;28.80;44.30;;;;;;21063981;27;81783;-66
2021/09/06 09:51:22;;;;;;;9.30;3.08;;;29.40;43.40;;;;;;21059995;27;81807;-69
2021/09/06 10:01:27;;;;;;;9.88;3.70;;;29.30;43.50;;;;;;20980993;27;81836;-67
2021/09/06 10:11:36;;;;;;;7.25;3.03;;;29.50;43.10;;;;;;20971718;27;80754;-66
2021/09/06 10:21:54;;;;;;;10.55;3.72;;;29.30;43.20;;;;;;20975307;27;80604;-65
2021/09/06 10:32:15;;;;;;;8.15;2.72;;;29.60;42.60;;;;;;21004665;27;80808;-64
2021/09/06 10:42:17;;;;;;;13.20;3.70;;;30.10;41.80;;;;;;21033725;27;81556;-65
2021/09/06 10:52:24;;;;;;;12.02;3.72;;;30.70;41.10;;;;;;21039086;27;81750;-67
2021/09/06 11:02:25;;;;;;;12.15;3.35;;;34.50;34.30;;;;;;21053057;27;81684;-67
2021/09/06 11:12:27;;;;;;;7.47;3.30;;;32.10;37.60;;;;;;21028652;27;81819;-67
2021/09/06 11:22:30;;;;;;;6.85;2.60;;;30.60;39.50;;;;;;21054208;27;82044;-67
2021/09/06 11:32:44;;;;;;;6.78;2.80;;;30.80;39.40;;;;;;21055281;27;80698;-66
2021/09/06 11:42:47;;;;;;;12.57;2.75;;;29.70;41.40;;;;;;21018572;27;81931;-66
2021/09/06 11:53:03;;;;;;;7.18;2.47;;;30.00;41.10;;;;;;20967801;27;79948;-65
2021/09/06 12:03:06;;;;;;;9.60;3.30;;;32.70;36.80;;;;;;20949164;27;80063;-67
2021/09/06 12:13:10;;;;;;;9.15;3.08;;;33.20;36.30;;;;;;20968739;27;81846;-65
2021/09/06 12:23:15;;;;;;;11.10;2.80;;;32.30;37.70;;;;;;20997981;27;80916;-64
2021/09/06 12:33:17;;;;;;;12.30;3.35;;;32.20;37.50;;;;;;20965833;27;80889;-65
2021/09/06 12:43:19;;;;;;;10.73;2.92;;;32.60;37.00;;;;;;21017116;27;82404;-65
2021/09/06 12:53:22;;;;;;;8.85;3.15;;;35.00;32.90;;;;;;21045239;27;82159;-68
2021/09/06 13:03:24;;;;;;;9.18;3.00;;;36.60;31.10;;;;;;21027218;27;81850;-64
2021/09/06 13:13:27;;;;;;;6.53;2.80;;;34.70;33.60;;;;;;21034400;27;81860;-65
2021/09/06 13:23:31;;;;;;;6.97;2.70;;;35.50;32.00;;;;;;21030681;27;80884;-66
2021/09/06 13:33:37;;;;;;;6.00;2.38;;;38.90;27.80;;;;;;21033444;27;82110;-67
2021/09/06 13:43:40;;;;;;;10.30;2.60;;;39.90;26.50;;;;;;21015180;27;81060;-65
2021/09/06 13:53:42;;;;;;;7.97;2.42;;;39.50;26.60;;;;;;21048153;27;81418;-61
2021/09/06 14:03:45;;;;;;;6.93;2.47;;;37.20;29.30;;;;;;21029462;27;80740;-62
2021/09/06 14:13:52;;;;;;;7.95;2.70;;;38.60;26.70;;;;;;21045599;27;81797;-65
2021/09/06 14:23:55;;;;;;;8.98;2.78;;;38.60;26.00;;;;;;21045052;27;81505;-71
2021/09/06 14:33:59;;;;;;;7.20;2.35;;;42.00;22.60;;;;;;21025832;27;80456;-69
2021/09/06 14:44:01;;;;;;;6.60;2.80;;;44.00;20.00;;;;;;20973734;27;81788;-67
2021/09/06 14:54:05;;;;;;;9.98;3.08;;;42.50;20.90;;;;;;20973688;27;82048;-68
2021/09/06 15:04:06;;;;;;;10.95;2.65;;;43.50;19.80;;;;;;20955182;27;80741;-67
2021/09/06 15:14:09;;;;;;;7.88;2.35;;;41.50;21.30;;;;;;20973883;27;80877;-69
2021/09/06 15:24:13;;;;;;;14.68;3.35;;;40.60;21.00;;;;;;20972508;27;81019;-67
2021/09/06 15:34:19;;;;;;;12.38;3.22;;;40.30;21.00;;;;;;20954148;27;80030;-69
2021/09/06 15:44:25;;;;;;;13.23;3.38;;;39.10;21.10;;;;;;20971428;27;80630;-69
2021/09/06 15:54:27;;;;;;;11.20;3.38;;;36.60;23.30;;;;;;20971815;27;80840;-69
2021/09/06 16:04:29;;;;;;;12.93;2.90;;;35.10;24.60;;;;;;20970870;27;82102;-69
2021/09/06 16:14:34;;;;;;;14.07;4.10;;;34.50;25.30;;;;;;20969750;27;79957;-70
2021/09/06 16:24:36;;;;;;;15.70;3.53;;;34.00;25.50;;;;;;20969352;27;80194;-69
2021/09/06 16:34:38;;;;;;;19.50;3.55;;;33.70;26.30;;;;;;20968800;27;82438;-70
2021/09/06 16:44:41;;;;;;;18.35;3.90;;;33.00;27.40;;;;;;20967957;27;80511;-68
2021/09/06 16:54:42;;;;;;;18.50;3.05;;;32.50;27.50;;;;;;20967971;27;80771;-68
2021/09/06 17:04:44;;;;;;;18.25;3.00;;;32.20;28.00;;;;;;20966529;27;81821;-69
2021/09/06 17:14:46;;;;;;;16.10;3.13;;;32.20;28.80;;;;;;20967196;27;80511;-69
2021/09/06 17:24:50;;;;;;;11.13;2.83;;;32.00;29.20;;;;;;20978045;27;82064;-69
2021/09/06 17:34:53;;;;;;;19.52;3.22;;;31.70;29.70;;;;;;20979881;27;81790;-69
2021/09/06 17:44:55;;;;;;;14.63;3.38;;;31.60;29.00;;;;;;20979210;27;81822;-70
2021/09/06 17:54:56;;;;;;;12.05;3.13;;;31.30;29.40;;;;;;20978048;27;80714;-69
2021/09/06 18:04:58;;;;;;;16.38;4.30;;;31.10;30.30;;;;;;20959101;27;80685;-69
2021/09/06 18:15:00;;;;;;;13.02;4.25;;;30.90;30.50;;;;;;20959686;27;80751;-69
2021/09/06 18:25:01;;;;;;;15.00;2.90;;;30.70;30.90;;;;;;20977701;27;81858;-71
2021/09/06 18:35:04;;;;;;;13.82;3.10;;;30.50;30.70;;;;;;20975752;27;80897;-68
2021/09/06 18:45:07;;;;;;;12.27;3.10;;;30.30;31.80;;;;;;20975160;27;81669;-69
2021/09/06 18:55:08;;;;;;;11.80;2.97;;;30.10;32.30;;;;;;20953598;27;81563;-69
2021/09/06 19:05:10;;;;;;;8.18;3.22;;;30.00;31.70;;;;;;20972377;27;81163;-72
2021/09/06 19:15:12;;;;;;;10.90;2.47;;;29.80;31.90;;;;;;20973010;27;80755;-71
2021/09/06 19:25:14;;;;;;;10.75;2.55;;;29.60;31.80;;;;;;20953047;27;81842;-71
2021/09/06 19:35:15;;;;;;;6.55;3.00;;;29.40;32.00;;;;;;20952331;27;80382;-70
2021/09/06 19:45:17;;;;;;;14.20;3.25;;;29.30;32.10;;;;;;20952094;27;80613;-70
2021/09/06 19:55:19;;;;;;;8.07;2.20;;;29.10;32.50;;;;;;20951130;27;80046;-73
2021/09/06 20:05:21;;;;;;;6.93;1.92;;;29.00;32.70;;;;;;20967509;27;80893;-72
2021/09/06 20:15:23;;;;;;;7.72;2.67;;;29.00;33.00;;;;;;20968462;27;80938;-71
2021/09/06 20:25:25;;;;;;;10.05;2.55;;;29.00;33.30;;;;;;20966826;27;81291;-72
2021/09/06 20:35:27;;;;;;;9.30;1.73;;;28.90;33.40;;;;;;20949197;27;80733;-72
2021/09/06 20:45:28;;;;;;;8.73;3.30;;;28.80;33.70;;;;;;20949640;27;80866;-72
2021/09/06 20:55:30;;;;;;;10.10;2.88;;;28.70;33.90;;;;;;20955362;27;80659;-73
2021/09/06 21:05:41;;;;;;;7.10;2.35;;;28.50;34.00;;;;;;20963064;27;81820;-72
2021/09/06 21:15:42;;;;;;;9.75;2.10;;;28.40;33.90;;;;;;20979672;27;80723;-71
2021/09/06 21:25:44;;;;;;;9.63;2.20;;;28.40;33.70;;;;;;20979029;27;81965;-71
2021/09/06 21:35:46;;;;;;;10.77;3.22;;;28.20;34.00;;;;;;20976993;27;80082;-72
2021/09/06 21:45:48;;;;;;;7.80;2.00;;;28.10;33.90;;;;;;20960027;27;80674;-71
2021/09/06 21:55:50;;;;;;;7.28;2.10;;;28.00;33.60;;;;;;20961086;27;81164;-71
2021/09/06 22:05:52;;;;;;;13.05;2.03;;;28.00;33.60;;;;;;20976721;27;81085;-71
2021/09/06 22:15:53;;;;;;;10.50;2.55;;;27.90;33.70;;;;;;20958046;27;80775;-71
2021/09/06 22:25:55;;;;;;;10.35;2.25;;;27.90;33.90;;;;;;20974725;27;80565;-71
2021/09/06 22:35:57;;;;;;;7.32;2.55;;;27.60;34.50;;;;;;20974613;27;81851;-71
2021/09/06 22:45:58;;;;;;;8.45;2.35;;;27.60;34.90;;;;;;20955282;27;81081;-71
2021/09/06 22:56:00;;;;;;;6.60;2.55;;;27.50;35.30;;;;;;20954177;27;80856;-71
2021/09/06 23:06:01;;;;;;;6.57;1.85;;;27.50;35.60;;;;;;20952988;27;83533;-71
2021/09/06 23:16:04;;;;;;;9.05;2.33;;;27.40;35.90;;;;;;20970103;27;80732;-70
2021/09/06 23:26:06;;;;;;;9.27;2.30;;;27.20;36.50;;;;;;20971109;27;81058;-72
2021/09/06 23:36:07;;;;;;;12.98;2.47;;;27.00;37.00;;;;;;20970233;27;80843;-71
2021/09/06 23:46:10;;;;;;;3.80;2.00;;;26.90;37.40;;;;;;20952389;27;81832;-70
2021/09/06 23:56:11;;;;;;;11.60;2.60;;;26.80;37.90;;;;;;20950995;27;80473;-72
